createdAt,value
2024-02-27T00:00:23.974Z,14.50
2024-02-27T00:02:25.942Z,14.50
2024-02-27T00:04:27.796Z,14.40
2024-02-27T00:06:30.506Z,14.50
2024-02-27T00:08:32.476Z,14.40
2024-02-27T00:10:34.381Z,14.40
2024-02-27T00:12:37.792Z,14.40
2024-02-27T00:14:39.901Z,14.40
2024-02-27T00:16:41.872Z,14.40
2024-02-27T00:18:44.362Z,14.40
2024-02-27T00:20:46.398Z,14.40
2024-02-27T00:22:48.288Z,14.40
2024-02-27T00:24:50.163Z,14.40
2024-02-27T00:26:52.136Z,14.40
2024-02-27T00:28:54.294Z,14.40
2024-02-27T00:30:56.144Z,14.40
2024-02-27T00:32:58.157Z,14.40
2024-02-27T00:35:00.357Z,14.40
2024-02-27T00:37:02.424Z,14.40
2024-02-27T00:39:04.368Z,14.40
2024-02-27T00:41:06.334Z,14.40
2024-02-27T00:43:08.296Z,14.40
2024-02-27T00:45:10.336Z,14.40
2024-02-27T00:47:12.370Z,14.40
2024-02-27T00:49:14.358Z,14.40
2024-02-27T00:51:16.444Z,14.40
2024-02-27T00:53:21.031Z,14.30
2024-02-27T00:55:22.946Z,14.30
2024-02-27T00:57:24.945Z,14.30
2024-02-27T00:59:26.835Z,14.30
2024-02-27T01:01:28.758Z,14.30
2024-02-27T01:03:30.780Z,14.30
2024-02-27T01:05:32.818Z,14.30
2024-02-27T01:07:34.831Z,14.30
2024-02-27T01:09:37.490Z,14.40
2024-02-27T01:11:39.439Z,14.30
2024-02-27T01:13:41.385Z,14.30
2024-02-27T01:15:43.463Z,14.30
2024-02-27T01:17:46.224Z,14.30
2024-02-27T01:19:48.188Z,14.30
2024-02-27T01:21:50.133Z,14.30
2024-02-27T01:23:52.009Z,14.30
2024-02-27T01:25:53.921Z,14.30
2024-02-27T01:27:55.821Z,14.30
2024-02-27T01:29:57.763Z,14.30
2024-02-27T01:31:59.687Z,14.30
2024-02-27T01:34:01.769Z,14.20
2024-02-27T01:36:04.008Z,14.20
2024-02-27T01:38:05.927Z,14.20
2024-02-27T01:40:08.578Z,14.20
2024-02-27T01:42:13.983Z,14.20
2024-02-27T01:44:15.865Z,14.20
2024-02-27T01:46:19.381Z,14.30
2024-02-27T01:48:21.410Z,14.20
2024-02-27T01:50:24.649Z,14.20
2024-02-27T01:52:26.728Z,14.20
2024-02-27T01:54:28.592Z,14.20
2024-02-27T01:56:30.546Z,14.20
2024-02-27T01:58:32.962Z,14.20
2024-02-27T02:00:34.954Z,14.20
2024-02-27T02:02:38.916Z,14.20
2024-02-27T02:04:40.880Z,14.20
2024-02-27T02:06:42.965Z,14.20
2024-02-27T02:08:45.058Z,14.20
2024-02-27T02:10:47.069Z,14.20
2024-02-27T02:12:49.565Z,14.20
2024-02-27T02:14:53.140Z,14.10
2024-02-27T02:16:55.092Z,14.20
2024-02-27T02:18:57.851Z,14.20
2024-02-27T02:21:02.926Z,14.20
2024-02-27T02:23:05.288Z,14.20
2024-02-27T02:25:07.485Z,14.20
2024-02-27T02:27:09.791Z,14.20
2024-02-27T02:29:11.746Z,14.20
2024-02-27T02:31:13.579Z,14.20
2024-02-27T02:33:15.626Z,14.20
2024-02-27T02:35:17.729Z,14.30
2024-02-27T02:37:19.842Z,14.20
2024-02-27T02:39:22.435Z,14.20
2024-02-27T02:41:24.352Z,14.20
2024-02-27T02:43:26.221Z,14.20
2024-02-27T02:45:28.689Z,14.20
2024-02-27T02:47:30.707Z,14.20
2024-02-27T02:49:32.751Z,14.20
2024-02-27T02:51:34.880Z,14.10
2024-02-27T02:53:36.861Z,14.10
2024-02-27T02:55:43.422Z,14.10
2024-02-27T02:57:45.286Z,14.10
2024-02-27T02:59:47.308Z,14.10
2024-02-27T03:01:49.181Z,14.10
2024-02-27T03:03:51.277Z,14.10
2024-02-27T03:05:53.268Z,14.10
2024-02-27T03:07:55.230Z,14.10
2024-02-27T03:09:57.328Z,14.10
2024-02-27T03:12:01.653Z,14.10
2024-02-27T03:14:04.460Z,14.10
2024-02-27T03:16:06.548Z,14.10
2024-02-27T03:18:09.061Z,14.10
2024-02-27T03:20:11.626Z,14.10
2024-02-27T03:22:14.996Z,14.10
2024-02-27T03:24:17.050Z,14.10
2024-02-27T03:26:19.005Z,14.10
2024-02-27T03:28:20.896Z,14.10
2024-02-27T03:30:22.794Z,14.10
2024-02-27T03:32:24.829Z,14.10
2024-02-27T03:34:27.705Z,14.00
2024-02-27T03:36:29.741Z,14.10
2024-02-27T03:38:34.621Z,14.00
2024-02-27T03:40:36.558Z,14.00
2024-02-27T03:42:38.672Z,14.00
2024-02-27T03:44:44.404Z,14.00
2024-02-27T03:46:46.276Z,14.10
2024-02-27T03:48:48.562Z,14.00
2024-02-27T03:50:50.611Z,14.10
2024-02-27T03:52:52.480Z,14.10
2024-02-27T03:54:54.402Z,14.00
2024-02-27T03:56:56.296Z,14.10
2024-02-27T03:58:58.168Z,14.00
2024-02-27T04:01:00.136Z,14.00
2024-02-27T04:03:02.085Z,14.00
2024-02-27T04:05:04.666Z,14.00
2024-02-27T04:07:06.641Z,14.00
2024-02-27T04:09:08.618Z,14.00
2024-02-27T04:11:11.576Z,14.00
2024-02-27T04:13:14.182Z,14.00
2024-02-27T04:15:16.069Z,14.00
2024-02-27T04:17:18.167Z,14.00
2024-02-27T04:19:20.274Z,14.00
2024-02-27T04:21:22.391Z,14.00
2024-02-27T04:23:24.228Z,14.00
2024-02-27T04:25:26.113Z,14.00
2024-02-27T04:27:28.005Z,14.00
2024-02-27T04:29:29.913Z,14.00
2024-02-27T04:31:31.883Z,14.00
2024-02-27T04:33:33.862Z,14.00
2024-02-27T04:35:35.820Z,14.00
2024-02-27T04:37:37.698Z,14.10
2024-02-27T04:39:43.629Z,14.10
2024-02-27T04:41:45.986Z,14.10
2024-02-27T04:43:48.368Z,14.10
2024-02-27T04:45:50.278Z,14.10
2024-02-27T04:47:52.165Z,14.10
2024-02-27T04:49:54.168Z,14.10
2024-02-27T04:51:56.024Z,14.10
2024-02-27T04:53:57.905Z,14.10
2024-02-27T04:55:59.988Z,14.00
2024-02-27T04:58:02.614Z,14.00
2024-02-27T05:00:06.097Z,14.00
2024-02-27T05:02:08.008Z,14.00
2024-02-27T05:04:09.892Z,14.10
2024-02-27T05:06:11.831Z,14.00
2024-02-27T05:08:13.776Z,14.00
2024-02-27T05:10:16.173Z,14.00
2024-02-27T05:12:18.065Z,14.00
2024-02-27T05:14:20.157Z,14.00
2024-02-27T05:16:22.027Z,14.00
2024-02-27T05:18:23.997Z,14.00
2024-02-27T05:20:26.015Z,14.00
2024-02-27T05:22:27.890Z,14.00
2024-02-27T05:24:29.770Z,14.00
2024-02-27T05:26:31.737Z,14.00
2024-02-27T05:28:33.956Z,14.00
2024-02-27T05:30:36.145Z,14.00
2024-02-27T05:32:39.018Z,14.00
2024-02-27T05:34:41.128Z,14.00
2024-02-27T05:36:44.022Z,13.90
2024-02-27T05:38:46.238Z,13.90
2024-02-27T05:40:48.212Z,13.90
2024-02-27T05:42:50.119Z,13.90
2024-02-27T05:44:52.048Z,13.90
2024-02-27T05:46:53.988Z,13.90
2024-02-27T05:48:56.045Z,13.90
2024-02-27T05:50:58.042Z,13.90
2024-02-27T05:53:00.026Z,13.90
2024-02-27T05:55:01.979Z,13.90
2024-02-27T05:57:05.960Z,13.90
2024-02-27T05:59:07.860Z,13.90
2024-02-27T06:01:09.858Z,13.90
2024-02-27T06:03:11.920Z,14.00
2024-02-27T06:05:13.885Z,13.90
2024-02-27T06:07:15.866Z,13.90
2024-02-27T06:09:17.853Z,13.90
2024-02-27T06:11:19.822Z,13.90
2024-02-27T06:13:22.271Z,13.90
2024-02-27T06:15:24.578Z,13.90
2024-02-27T06:17:26.477Z,13.90
2024-02-27T06:19:28.585Z,13.90
2024-02-27T06:21:49.305Z,13.90
2024-02-27T06:23:52.542Z,13.90
2024-02-27T06:25:55.062Z,13.90
2024-02-27T06:27:57.051Z,13.90
2024-02-27T06:29:58.988Z,13.90
2024-02-27T06:32:04.210Z,13.90
2024-02-27T06:34:06.737Z,13.90
2024-02-27T06:36:08.776Z,13.90
2024-02-27T06:38:10.653Z,13.90
2024-02-27T06:40:12.811Z,13.90
2024-02-27T06:42:14.639Z,13.90
2024-02-27T06:44:16.631Z,13.90
2024-02-27T06:46:18.595Z,13.90
2024-02-27T06:48:20.592Z,13.90
2024-02-27T06:50:22.612Z,13.90
2024-02-27T06:52:24.487Z,13.90
2024-02-27T06:54:26.385Z,13.90
2024-02-27T06:56:28.270Z,13.90
2024-02-27T06:58:30.874Z,13.90
2024-02-27T07:00:32.788Z,13.90
2024-02-27T07:02:34.912Z,13.90
2024-02-27T07:04:37.064Z,13.90
2024-02-27T07:06:40.084Z,13.90
2024-02-27T07:08:42.159Z,13.90
2024-02-27T07:10:44.034Z,13.90
2024-02-27T07:12:45.918Z,13.90
2024-02-27T07:14:48.934Z,13.90
2024-02-27T07:16:51.344Z,13.90
2024-02-27T07:18:53.419Z,13.90
2024-02-27T07:20:57.339Z,13.90
2024-02-27T07:23:00.795Z,13.90
2024-02-27T07:25:02.692Z,13.90
2024-02-27T07:27:05.281Z,13.90
2024-02-27T07:29:08.349Z,13.90
2024-02-27T07:31:10.954Z,13.90
2024-02-27T07:33:12.940Z,13.90
2024-02-27T07:35:15.492Z,13.90
2024-02-27T07:37:17.465Z,13.90
2024-02-27T07:39:19.412Z,13.90
2024-02-27T07:41:21.897Z,13.90
2024-02-27T07:43:23.737Z,13.90
2024-02-27T07:45:25.733Z,13.90
2024-02-27T07:47:27.744Z,13.90
2024-02-27T07:49:29.689Z,13.90
2024-02-27T07:51:32.999Z,13.80
2024-02-27T07:53:34.991Z,13.90
2024-02-27T07:55:36.905Z,13.90
2024-02-27T07:57:38.965Z,13.90
2024-02-27T07:59:41.025Z,13.90
2024-02-27T08:01:43.012Z,13.90
2024-02-27T08:03:44.937Z,13.80
2024-02-27T08:05:47.209Z,13.80
2024-02-27T08:07:49.446Z,13.90
2024-02-27T08:09:51.545Z,13.90
2024-02-27T08:11:53.471Z,14.00
2024-02-27T08:13:55.429Z,14.00
2024-02-27T08:15:57.461Z,14.00
2024-02-27T08:17:59.602Z,13.90
2024-02-27T08:20:01.751Z,13.90
2024-02-27T08:22:05.397Z,14.00
2024-02-27T08:24:10.159Z,14.00
2024-02-27T08:26:12.017Z,14.00
2024-02-27T08:28:13.963Z,14.00
2024-02-27T08:30:16.165Z,14.00
2024-02-27T08:32:19.083Z,14.00
2024-02-27T08:34:21.173Z,14.00
2024-02-27T08:36:26.288Z,14.00
2024-02-27T08:38:28.293Z,14.00
2024-02-27T08:40:32.503Z,14.00
2024-02-27T08:42:37.177Z,14.00
2024-02-27T08:44:39.126Z,14.00
2024-02-27T08:46:41.460Z,14.10
2024-02-27T08:48:43.497Z,14.00
2024-02-27T08:50:48.010Z,14.00
2024-02-27T08:52:49.837Z,14.00
2024-02-27T08:54:51.733Z,14.00
2024-02-27T08:56:53.642Z,14.00
2024-02-27T08:58:55.520Z,14.00
2024-02-27T09:00:58.180Z,14.00
2024-02-27T09:03:00.106Z,14.00
2024-02-27T09:05:02.060Z,14.00
2024-02-27T09:07:04.272Z,14.10
2024-02-27T09:09:08.780Z,14.10
2024-02-27T09:11:11.154Z,14.10
2024-02-27T09:13:13.097Z,14.00
2024-02-27T09:15:15.152Z,14.00
2024-02-27T09:17:17.072Z,14.00
2024-02-27T09:19:19.101Z,14.00
2024-02-27T09:21:21.031Z,13.90
2024-02-27T09:23:22.997Z,14.00
2024-02-27T09:25:25.568Z,14.00
2024-02-27T09:27:27.840Z,14.00
2024-02-27T09:29:29.781Z,14.10
2024-02-27T09:31:32.706Z,14.20
2024-02-27T09:33:34.975Z,14.20
2024-02-27T09:35:36.918Z,14.20
2024-02-27T09:37:38.849Z,14.30
2024-02-27T09:39:51.453Z,14.30
2024-02-27T09:42:03.848Z,14.20
2024-02-27T09:44:05.906Z,14.20
2024-02-27T09:46:07.816Z,14.20
2024-02-27T09:48:09.862Z,14.20
2024-02-27T09:50:11.942Z,14.20
2024-02-27T09:52:17.365Z,14.20
2024-02-27T09:54:20.519Z,14.20
2024-02-27T09:56:25.997Z,14.20
2024-02-27T09:58:28.016Z,14.10
2024-02-27T10:00:30.021Z,14.20
2024-02-27T10:02:31.987Z,14.20
2024-02-27T10:04:35.779Z,14.10
2024-02-27T10:06:37.633Z,14.10
2024-02-27T10:08:41.838Z,14.10
2024-02-27T10:10:43.867Z,14.10
2024-02-27T10:12:45.876Z,14.10
2024-02-27T10:14:47.890Z,14.00
2024-02-27T10:16:51.478Z,14.00
2024-02-27T10:18:53.892Z,14.00
2024-02-27T10:20:58.227Z,14.00
2024-02-27T10:23:00.466Z,14.00
2024-02-27T10:25:12.235Z,14.00
2024-02-27T10:27:14.462Z,13.90
2024-02-27T10:29:16.483Z,14.00
2024-02-27T10:31:18.582Z,14.00
2024-02-27T10:33:20.655Z,14.00
2024-02-27T10:35:23.884Z,13.90
2024-02-27T10:37:25.901Z,13.90
2024-02-27T10:39:28.284Z,13.90
2024-02-27T10:41:31.056Z,13.90
2024-02-27T10:43:34.501Z,13.90
2024-02-27T10:45:36.452Z,13.90
2024-02-27T10:47:38.426Z,13.90
2024-02-27T10:49:42.996Z,13.90
2024-02-27T10:51:45.095Z,13.90
2024-02-27T10:53:49.337Z,13.90
2024-02-27T10:55:51.259Z,13.90
2024-02-27T10:57:54.824Z,13.90
2024-02-27T10:59:56.785Z,13.90
2024-02-27T11:02:00.724Z,13.90
2024-02-27T11:04:04.550Z,13.90
2024-02-27T11:06:06.866Z,13.90
2024-02-27T11:08:08.786Z,13.90
2024-02-27T11:10:11.995Z,14.00
2024-02-27T11:12:18.193Z,13.90
2024-02-27T11:14:20.217Z,14.00
2024-02-27T11:16:22.697Z,14.20
2024-02-27T11:18:26.931Z,14.20
2024-02-27T11:20:29.729Z,14.20
2024-02-27T11:22:31.723Z,14.30
2024-02-27T11:24:33.576Z,14.30
2024-02-27T11:26:38.737Z,14.20
2024-02-27T11:28:41.668Z,14.20
2024-02-27T11:30:45.673Z,14.30
2024-02-27T11:32:48.946Z,14.40
2024-02-27T11:34:51.520Z,14.40
2024-02-27T11:37:15.946Z,14.40
2024-02-27T11:39:32.014Z,14.40
2024-02-27T11:41:34.417Z,14.40
2024-02-27T11:43:37.120Z,14.40
2024-02-27T11:45:40.013Z,14.40
2024-02-27T11:47:49.529Z,14.50
2024-02-27T11:49:53.350Z,14.40
2024-02-27T11:51:55.533Z,14.40
2024-02-27T11:53:58.868Z,14.30
2024-02-27T11:56:00.808Z,14.40
2024-02-27T11:58:02.902Z,14.30
2024-02-27T12:00:16.160Z,14.30
2024-02-27T12:02:21.232Z,14.30
2024-02-27T12:04:23.178Z,14.40
2024-02-27T12:06:26.183Z,14.40
2024-02-27T12:08:28.402Z,14.40
2024-02-27T12:10:30.392Z,14.40
2024-02-27T12:12:32.332Z,14.40
2024-02-27T12:14:34.467Z,14.40
2024-02-27T12:16:36.501Z,14.40
2024-02-27T12:18:40.075Z,14.50
2024-02-27T12:20:42.391Z,14.50
2024-02-27T12:22:46.649Z,14.50
2024-02-27T12:24:49.213Z,14.50
2024-02-27T12:26:51.502Z,14.40
2024-02-27T12:28:54.120Z,14.50
2024-02-27T12:30:56.235Z,14.50
2024-02-27T12:32:58.167Z,14.50
2024-02-27T12:35:00.071Z,14.50
2024-02-27T12:37:02.194Z,14.50
2024-02-27T12:39:04.690Z,14.60
2024-02-27T12:41:06.988Z,14.50
2024-02-27T12:43:09.140Z,14.50
2024-02-27T12:45:12.083Z,14.50
2024-02-27T12:47:14.675Z,14.50
2024-02-27T12:49:17.785Z,14.50
2024-02-27T12:51:20.164Z,14.50
2024-02-27T12:53:22.286Z,14.40
2024-02-27T12:55:24.450Z,14.40
2024-02-27T12:57:26.624Z,14.40
2024-02-27T12:59:28.771Z,14.40
2024-02-27T13:01:33.663Z,14.40
2024-02-27T13:03:38.742Z,14.40
2024-02-27T13:05:43.748Z,14.40
2024-02-27T13:07:46.993Z,14.40
2024-02-27T13:09:49.165Z,14.40
2024-02-27T13:11:52.287Z,14.40
2024-02-27T13:13:54.926Z,14.40
2024-02-27T13:15:56.985Z,14.40
2024-02-27T13:17:59.268Z,14.40
2024-02-27T13:20:01.576Z,14.30
2024-02-27T13:22:04.336Z,14.40
2024-02-27T13:24:06.970Z,14.40
2024-02-27T13:26:09.404Z,14.40
2024-02-27T13:28:11.479Z,14.40
2024-02-27T13:30:14.066Z,14.40
2024-02-27T13:32:16.480Z,14.30
2024-02-27T13:34:18.629Z,14.40
2024-02-27T13:36:20.618Z,14.30
2024-02-27T13:38:23.023Z,14.30
2024-02-27T13:40:25.145Z,14.30
2024-02-27T13:42:27.462Z,14.30
2024-02-27T13:44:29.594Z,14.30
2024-02-27T13:46:31.716Z,14.30
2024-02-27T13:48:34.017Z,14.30
2024-02-27T13:50:36.311Z,14.30
2024-02-27T13:52:39.141Z,14.30
2024-02-27T13:54:41.897Z,14.30
2024-02-27T13:56:44.063Z,14.40
2024-02-27T13:58:45.987Z,14.30
2024-02-27T14:00:49.058Z,14.30
2024-02-27T14:02:51.065Z,14.30
2024-02-27T14:04:53.137Z,14.40
2024-02-27T14:06:55.127Z,14.30
2024-02-27T14:08:57.049Z,14.40
2024-02-27T14:11:01.242Z,14.40
2024-02-27T14:13:03.424Z,14.40
2024-02-27T14:15:07.089Z,14.30
2024-02-27T14:17:10.777Z,14.40
2024-02-27T14:19:13.346Z,14.40
2024-02-27T14:21:20.431Z,14.40
2024-02-27T14:23:22.503Z,14.30
2024-02-27T14:25:25.353Z,14.30
2024-02-27T14:27:27.619Z,14.30
2024-02-27T14:29:29.521Z,14.30
2024-02-27T14:31:33.337Z,14.30
2024-02-27T14:33:35.404Z,14.30
2024-02-27T14:35:38.772Z,14.30
2024-02-27T14:37:40.919Z,14.20
2024-02-27T14:39:43.085Z,14.20
2024-02-27T14:41:45.141Z,14.20
2024-02-27T14:43:47.926Z,14.20
2024-02-27T14:45:49.852Z,14.20
2024-02-27T14:47:51.816Z,14.20
2024-02-27T14:49:54.974Z,14.20
2024-02-27T14:51:56.981Z,14.20
2024-02-27T14:53:58.962Z,14.20
2024-02-27T14:56:00.897Z,14.20
2024-02-27T14:58:02.753Z,14.20
2024-02-27T15:00:07.322Z,14.20
2024-02-27T15:02:09.427Z,14.20
2024-02-27T15:04:15.125Z,14.20
2024-02-27T15:06:19.001Z,14.20
2024-02-27T15:08:22.369Z,14.20
2024-02-27T15:10:24.951Z,14.20
2024-02-27T15:12:28.789Z,14.20
2024-02-27T15:14:31.026Z,14.20
2024-02-27T15:16:34.365Z,14.20
2024-02-27T15:18:36.352Z,14.20
2024-02-27T15:20:38.466Z,14.10
2024-02-27T15:22:41.531Z,14.10
2024-02-27T15:24:45.505Z,14.10
2024-02-27T15:26:47.395Z,14.20
2024-02-27T15:28:49.943Z,14.10
2024-02-27T15:30:51.906Z,14.10
2024-02-27T15:32:53.958Z,14.10
2024-02-27T15:34:56.620Z,14.10
2024-02-27T15:36:58.516Z,14.10
2024-02-27T15:39:00.454Z,14.10
2024-02-27T15:41:05.401Z,14.10
2024-02-27T15:43:10.573Z,14.10
2024-02-27T15:45:12.599Z,14.00
2024-02-27T15:47:15.632Z,13.90
2024-02-27T15:49:17.618Z,13.90
2024-02-27T15:51:19.655Z,13.90
2024-02-27T15:53:21.592Z,13.90
2024-02-27T15:55:23.534Z,13.90
2024-02-27T15:57:25.514Z,13.80
2024-02-27T15:59:27.596Z,13.80
2024-02-27T16:01:29.530Z,13.90
2024-02-27T16:03:58.509Z,13.90
2024-02-27T16:06:00.727Z,14.00
2024-02-27T16:08:03.866Z,13.90
2024-02-27T16:10:08.301Z,13.80
2024-02-27T16:12:18.449Z,13.80
2024-02-27T16:14:24.170Z,13.70
2024-02-27T16:16:26.095Z,13.70
2024-02-27T16:18:28.175Z,13.80
2024-02-27T16:20:30.544Z,13.80
2024-02-27T16:22:33.010Z,13.80
2024-02-27T16:24:34.876Z,13.80
2024-02-27T16:26:38.829Z,13.90
2024-02-27T16:28:41.026Z,14.00
2024-02-27T16:30:42.988Z,14.00
2024-02-27T16:32:46.575Z,14.00
2024-02-27T16:34:48.718Z,14.10
2024-02-27T16:36:50.806Z,14.00
2024-02-27T16:38:52.789Z,13.90
2024-02-27T16:40:54.855Z,13.90
2024-02-27T16:42:58.071Z,13.80
2024-02-27T16:45:00.024Z,13.80
2024-02-27T16:47:02.478Z,13.80
2024-02-27T16:49:04.507Z,13.70
2024-02-27T16:51:06.472Z,13.70
2024-02-27T16:53:08.465Z,13.70
2024-02-27T16:55:11.841Z,13.70
2024-02-27T16:57:13.870Z,13.70
2024-02-27T16:59:15.790Z,13.70
2024-02-27T17:01:17.756Z,13.70
2024-02-27T17:03:19.705Z,13.80
2024-02-27T17:05:21.617Z,13.80
2024-02-27T17:07:26.239Z,13.80
2024-02-27T17:09:28.857Z,13.80
2024-02-27T17:11:30.842Z,13.80
2024-02-27T17:13:32.718Z,13.80
2024-02-27T17:15:34.605Z,13.80
2024-02-27T17:17:36.698Z,13.80
2024-02-27T17:19:38.621Z,13.80
2024-02-27T17:21:41.679Z,13.80
2024-02-27T17:23:43.725Z,13.80
2024-02-27T17:25:45.625Z,13.80
2024-02-27T17:27:47.554Z,13.80
2024-02-27T17:29:51.580Z,13.80
2024-02-27T17:31:53.459Z,13.80
2024-02-27T17:33:55.450Z,13.80
2024-02-27T17:36:00.775Z,13.80
2024-02-27T17:38:02.622Z,13.80
2024-02-27T17:40:04.827Z,13.80
2024-02-27T17:42:07.438Z,13.80
2024-02-27T17:44:09.369Z,13.80
2024-02-27T17:46:11.305Z,13.80
2024-02-27T17:48:16.082Z,13.80
2024-02-27T17:50:18.248Z,13.80
2024-02-27T17:52:21.554Z,13.80
2024-02-27T17:54:23.749Z,13.80
2024-02-27T17:56:25.805Z,13.80
2024-02-27T17:58:27.659Z,13.80
2024-02-27T18:00:29.691Z,13.90
2024-02-27T18:02:31.529Z,13.90
2024-02-27T18:04:33.476Z,13.90
2024-02-27T18:06:35.606Z,13.90
2024-02-27T18:08:37.515Z,13.80
2024-02-27T18:10:39.838Z,13.80
2024-02-27T18:12:41.820Z,13.80
2024-02-27T18:14:43.681Z,13.80
2024-02-27T18:16:45.785Z,13.80
2024-02-27T18:18:47.753Z,13.90
2024-02-27T18:20:49.691Z,13.80
2024-02-27T18:22:51.570Z,13.90
2024-02-27T18:24:53.641Z,13.80
2024-02-27T18:26:55.568Z,13.80
2024-02-27T18:28:57.446Z,13.80
2024-02-27T18:30:59.439Z,13.80
2024-02-27T18:33:05.093Z,13.80
2024-02-27T18:35:07.337Z,13.80
2024-02-27T18:37:09.330Z,13.70
2024-02-27T18:39:11.255Z,13.80
2024-02-27T18:41:13.099Z,13.70
2024-02-27T18:43:15.006Z,13.80
2024-02-27T18:45:17.058Z,13.80
2024-02-27T18:47:20.522Z,13.80
2024-02-27T18:49:22.831Z,13.80
2024-02-27T18:51:25.786Z,13.80
2024-02-27T18:53:27.991Z,13.80
2024-02-27T18:55:29.950Z,13.80
2024-02-27T18:57:31.834Z,13.80
2024-02-27T18:59:33.762Z,13.80
2024-02-27T19:01:36.199Z,13.80
2024-02-27T19:03:38.184Z,13.80
2024-02-27T19:05:40.165Z,13.80
2024-02-27T19:07:42.222Z,13.80
2024-02-27T19:09:44.300Z,13.80
2024-02-27T19:11:46.477Z,13.80
2024-02-27T19:13:48.530Z,13.80
2024-02-27T19:15:50.497Z,13.80
2024-02-27T19:17:52.350Z,13.80
2024-02-27T19:19:54.420Z,13.80
2024-02-27T19:21:56.333Z,13.80
2024-02-27T19:24:00.234Z,13.80
2024-02-27T19:26:02.213Z,13.80
2024-02-27T19:28:04.845Z,13.80
2024-02-27T19:30:08.693Z,13.80
2024-02-27T19:32:11.944Z,13.80
2024-02-27T19:34:13.865Z,13.80
2024-02-27T19:36:15.909Z,13.80
2024-02-27T19:38:19.021Z,13.80
2024-02-27T19:40:22.035Z,13.80
2024-02-27T19:42:24.029Z,13.80
2024-02-27T19:44:26.032Z,13.90
2024-02-27T19:46:28.248Z,13.90
2024-02-27T19:48:30.177Z,13.90
2024-02-27T19:50:32.341Z,13.90
2024-02-27T19:52:39.455Z,13.90
2024-02-27T19:54:41.341Z,13.90
2024-02-27T19:56:43.353Z,13.90
2024-02-27T19:58:45.290Z,14.00
2024-02-27T20:00:50.663Z,14.00
2024-02-27T20:02:53.776Z,14.00
2024-02-27T20:04:55.619Z,14.00
2024-02-27T20:06:57.547Z,14.00
2024-02-27T20:08:59.490Z,14.00
2024-02-27T20:11:01.505Z,14.00
2024-02-27T20:13:03.520Z,14.10
2024-02-27T20:15:05.975Z,14.10
2024-02-27T20:17:07.854Z,14.10
2024-02-27T20:19:09.784Z,14.10
2024-02-27T20:21:12.417Z,14.10
2024-02-27T20:23:22.185Z,14.00
2024-02-27T20:25:24.128Z,14.00
2024-02-27T20:27:26.312Z,14.00
2024-02-27T20:29:35.541Z,14.00
2024-02-27T20:31:44.957Z,14.00
2024-02-27T20:33:47.429Z,14.00
2024-02-27T20:35:49.434Z,14.00
2024-02-27T20:37:51.706Z,13.90
2024-02-27T20:39:53.783Z,13.90
2024-02-27T20:41:56.290Z,14.00
2024-02-27T20:43:59.232Z,14.00
2024-02-27T20:46:01.206Z,14.00
2024-02-27T20:48:04.005Z,14.00
2024-02-27T20:50:06.641Z,14.00
2024-02-27T20:52:08.613Z,14.00
2024-02-27T20:54:10.547Z,14.00
2024-02-27T20:56:12.509Z,14.00
2024-02-27T20:58:14.474Z,14.00
2024-02-27T21:00:16.938Z,14.00
2024-02-27T21:02:18.905Z,14.00
2024-02-27T21:04:20.871Z,14.00
2024-02-27T21:06:22.750Z,14.00
2024-02-27T21:08:24.655Z,14.00
2024-02-27T21:10:26.719Z,14.00
2024-02-27T21:12:28.682Z,13.90
2024-02-27T21:14:32.478Z,14.00
2024-02-27T21:16:34.369Z,14.00
2024-02-27T21:18:36.380Z,14.00
2024-02-27T21:20:43.788Z,14.00
2024-02-27T21:22:46.772Z,13.90
2024-02-27T21:24:48.836Z,13.90
2024-02-27T21:26:50.741Z,13.90
2024-02-27T21:28:52.666Z,13.90
2024-02-27T21:30:54.566Z,14.00
2024-02-27T21:32:56.543Z,14.10
2024-02-27T21:34:58.507Z,14.10
2024-02-27T21:37:00.820Z,14.10
2024-02-27T21:39:05.314Z,14.00
2024-02-27T21:41:07.407Z,14.10
2024-02-27T21:43:09.311Z,14.00
2024-02-27T21:45:13.269Z,14.00
2024-02-27T21:47:15.417Z,14.00
2024-02-27T21:49:17.298Z,14.00
2024-02-27T21:51:19.220Z,14.00
2024-02-27T21:53:22.398Z,14.00
2024-02-27T21:55:24.280Z,13.90
2024-02-27T21:57:26.231Z,13.90
2024-02-27T21:59:28.204Z,13.90
2024-02-27T22:01:32.241Z,13.90
2024-02-27T22:03:34.248Z,13.90
2024-02-27T22:05:36.158Z,13.90
2024-02-27T22:07:37.980Z,13.90
2024-02-27T22:09:39.857Z,13.90
2024-02-27T22:11:42.557Z,13.90
2024-02-27T22:13:44.429Z,13.90
2024-02-27T22:15:46.387Z,13.90
2024-02-27T22:17:48.344Z,13.90
2024-02-27T22:19:50.257Z,13.90
2024-02-27T22:21:52.371Z,13.80
2024-02-27T22:23:54.294Z,13.80
2024-02-27T22:25:56.132Z,13.80
2024-02-27T22:27:58.374Z,13.80
2024-02-27T22:30:00.384Z,13.70
2024-02-27T22:32:02.309Z,13.70
2024-02-27T22:34:04.742Z,13.80
2024-02-27T22:36:07.294Z,13.70
2024-02-27T22:38:09.811Z,13.70
2024-02-27T22:40:11.914Z,13.70
2024-02-27T22:42:13.985Z,13.70
2024-02-27T22:44:15.898Z,13.70
2024-02-27T22:46:17.924Z,13.70
2024-02-27T22:48:19.804Z,13.70
2024-02-27T22:50:21.794Z,13.80
2024-02-27T22:52:23.713Z,13.70
2024-02-27T22:54:25.712Z,13.80
2024-02-27T22:56:27.705Z,13.80
2024-02-27T22:58:30.662Z,13.80
2024-02-27T23:00:33.010Z,13.90
2024-02-27T23:02:34.982Z,13.80
2024-02-27T23:04:36.870Z,13.80
2024-02-27T23:06:39.636Z,13.80
2024-02-27T23:08:41.667Z,13.80
2024-02-27T23:10:43.574Z,13.80
2024-02-27T23:12:50.162Z,13.80
2024-02-27T23:14:52.034Z,13.80
2024-02-27T23:16:53.874Z,13.80
2024-02-27T23:18:55.861Z,13.80
2024-02-27T23:20:57.902Z,13.80
2024-02-27T23:23:01.310Z,13.80
2024-02-27T23:25:03.362Z,13.80
2024-02-27T23:27:05.225Z,13.80
2024-02-27T23:29:07.483Z,13.80
2024-02-27T23:31:09.456Z,13.80
2024-02-27T23:33:11.410Z,13.80
2024-02-27T23:35:13.303Z,13.80
2024-02-27T23:37:15.173Z,13.80
2024-02-27T23:39:17.111Z,13.80
2024-02-27T23:41:19.029Z,13.80
2024-02-27T23:43:21.753Z,13.80
2024-02-27T23:45:23.594Z,13.90
2024-02-27T23:47:25.623Z,13.80
2024-02-27T23:49:27.534Z,13.80
2024-02-27T23:51:29.563Z,13.80
2024-02-27T23:53:31.503Z,13.80
2024-02-27T23:55:35.294Z,13.80
2024-02-27T23:57:38.013Z,13.80
2024-02-27T23:59:39.968Z,13.80
